createdAt,value
2022-11-05T00:02:10.678Z,5.67
2022-11-05T00:07:40.146Z,5.73
2022-11-05T00:13:04.235Z,5.10
2022-11-05T00:18:14.488Z,3.70
2022-11-05T00:23:38.745Z,4.13
2022-11-05T00:28:43.937Z,4.20
2022-11-05T05:32:32.537Z,5.67
2022-11-05T05:37:35.514Z,5.83
2022-11-05T05:42:42.911Z,6.27
2022-11-05T05:47:46.259Z,6.37
2022-11-05T05:52:49.098Z,5.20
2022-11-05T05:57:52.102Z,6.53
2022-11-05T06:02:56.787Z,6.67
2022-11-05T06:07:59.713Z,8.57
2022-11-05T06:13:02.777Z,8.03
2022-11-05T06:18:05.657Z,6.73
2022-11-05T06:23:09.111Z,7.73
2022-11-05T06:28:12.189Z,8.90
2022-11-05T06:33:14.996Z,6.17
2022-11-05T06:38:18.066Z,8.03
2022-11-05T06:43:21.071Z,7.90
2022-11-05T06:48:25.490Z,9.10
2022-11-05T06:53:29.090Z,7.37
2022-11-05T06:58:32.491Z,8.67
2022-11-05T07:03:36.011Z,6.30
2022-11-05T07:08:38.985Z,10.00
2022-11-05T07:13:42.040Z,8.67
2022-11-05T07:18:48.449Z,8.30
2022-11-05T07:23:51.541Z,8.07
2022-11-05T07:28:58.610Z,9.67
2022-11-05T07:34:02.036Z,9.07
2022-11-05T07:39:06.591Z,11.57
2022-11-05T07:44:09.606Z,9.27
2022-11-05T07:49:12.767Z,12.17
2022-11-05T07:54:15.874Z,11.53
2022-11-05T07:59:18.721Z,10.57
2022-11-05T08:04:21.705Z,12.30
2022-11-05T08:09:24.703Z,11.60
2022-11-05T08:14:27.651Z,14.40
2022-11-05T08:19:33.195Z,17.80
2022-11-05T08:24:36.378Z,12.30
2022-11-05T08:29:39.331Z,13.80
2022-11-05T08:34:42.389Z,16.50
2022-11-05T08:39:45.241Z,19.53
2022-11-05T08:44:48.073Z,15.47
2022-11-05T08:49:51.033Z,14.93
2022-11-05T08:54:54.061Z,12.23
2022-11-05T09:00:12.623Z,11.93
2022-11-05T09:05:23.596Z,14.10
2022-11-05T09:10:28.640Z,14.50
2022-11-05T09:15:32.231Z,13.13
2022-11-05T09:20:36.749Z,17.23
2022-11-05T09:25:39.669Z,13.60
2022-11-05T09:31:12.380Z,16.73
2022-11-05T09:36:15.448Z,15.00
2022-11-05T09:41:27.585Z,16.47
2022-11-05T09:46:46.849Z,18.50
2022-11-05T09:51:49.953Z,18.20
2022-11-05T09:56:57.099Z,15.63
2022-11-05T10:02:12.096Z,17.00
2022-11-05T10:07:23.934Z,14.53
2022-11-05T10:12:32.936Z,14.40
2022-11-05T10:18:05.191Z,20.80
2022-11-05T10:23:20.696Z,15.57
2022-11-05T10:28:28.069Z,16.80
2022-11-05T10:33:52.991Z,16.33
2022-11-05T10:39:40.372Z,15.20
2022-11-05T10:44:56.486Z,15.83
2022-11-05T10:50:12.825Z,13.50
2022-11-05T10:55:29.582Z,12.53
2022-11-05T11:00:32.863Z,16.10
2022-11-05T11:05:44.989Z,12.00
2022-11-05T11:11:09.119Z,8.57
2022-11-05T11:16:26.275Z,7.57
2022-11-05T11:27:22.913Z,11.37
2022-11-05T11:32:41.676Z,13.30
2022-11-05T11:38:32.499Z,14.20
2022-11-05T11:43:59.527Z,16.23
2022-11-05T11:49:30.695Z,17.13
2022-11-05T11:54:35.684Z,16.00
2022-11-05T12:00:07.697Z,14.73
2022-11-05T12:05:12.376Z,14.13
2022-11-05T12:10:39.043Z,10.33
2022-11-05T12:16:13.506Z,8.23
2022-11-05T12:21:55.135Z,8.43
2022-11-05T12:27:11.574Z,7.40
2022-11-05T12:32:24.966Z,6.23
2022-11-05T12:37:50.998Z,4.73
2022-11-05T12:43:18.863Z,5.50
2022-11-05T12:48:41.896Z,5.70
2022-11-05T12:53:57.604Z,7.43
2022-11-05T12:59:27.181Z,6.43
2022-11-05T13:05:50.882Z,10.77
2022-11-05T13:11:28.547Z,10.27
2022-11-05T13:17:07.934Z,8.57
2022-11-05T13:22:50.420Z,8.70
2022-11-05T13:28:24.681Z,9.40
2022-11-05T13:33:38.435Z,6.47
2022-11-05T13:39:03.570Z,7.30
2022-11-05T13:44:42.033Z,7.63
2022-11-05T13:49:57.421Z,7.40
2022-11-05T13:55:34.991Z,7.73
2022-11-05T14:01:02.939Z,7.97
2022-11-05T14:06:08.323Z,7.07
2022-11-05T14:11:27.578Z,10.83
2022-11-05T14:16:52.150Z,7.40
2022-11-05T14:21:56.678Z,7.07
2022-11-05T14:27:05.702Z,8.77
2022-11-05T14:32:18.649Z,6.93
2022-11-05T14:37:30.528Z,7.93
2022-11-05T14:42:33.505Z,9.00
2022-11-05T14:47:39.122Z,9.57
2022-11-05T14:52:57.780Z,6.47
2022-11-05T14:58:06.038Z,7.57
2022-11-05T15:03:45.412Z,7.13
2022-11-05T15:08:55.144Z,10.90
2022-11-05T15:14:34.016Z,11.63
2022-11-05T15:19:38.570Z,14.90
2022-11-05T15:24:43.520Z,8.53
2022-11-05T15:29:49.331Z,13.37
2022-11-05T15:40:32.830Z,13.47
2022-11-05T15:45:41.828Z,9.30
2022-11-05T15:50:46.833Z,11.90
2022-11-05T15:55:55.062Z,12.10
2022-11-05T16:00:58.051Z,10.53
2022-11-05T16:06:01.970Z,11.47
2022-11-05T16:11:04.935Z,11.90
2022-11-05T16:16:21.275Z,16.50
2022-11-05T16:21:24.139Z,13.93
2022-11-05T16:26:56.003Z,13.63
2022-11-05T16:31:51.614Z,11.30
2022-11-05T16:36:58.718Z,13.83
2022-11-05T16:42:01.657Z,10.30
2022-11-05T16:47:04.722Z,11.93
2022-11-05T16:52:12.654Z,15.67
2022-11-05T16:57:25.177Z,16.57
2022-11-05T17:02:28.903Z,15.53
2022-11-05T17:07:37.188Z,12.93
2022-11-05T17:12:45.636Z,12.53
2022-11-05T17:17:49.178Z,16.43
2022-11-05T17:22:52.346Z,10.77
2022-11-05T17:27:55.848Z,10.67
2022-11-05T17:32:59.234Z,14.63
2022-11-05T17:38:03.698Z,14.47
2022-11-05T17:43:10.133Z,13.17
2022-11-05T17:48:14.165Z,11.97
2022-11-05T17:53:21.422Z,15.23
2022-11-05T17:58:24.312Z,13.23
2022-11-05T18:03:27.370Z,11.63
2022-11-05T18:08:30.311Z,15.70
2022-11-05T18:13:33.291Z,12.47
2022-11-05T18:18:36.438Z,15.63
2022-11-05T18:23:43.144Z,11.30
2022-11-05T18:28:54.031Z,12.80
2022-11-05T18:34:00.618Z,9.67
2022-11-05T18:39:14.949Z,16.70
2022-11-05T18:44:48.213Z,15.20
2022-11-05T18:50:16.898Z,11.40
2022-11-05T18:55:30.919Z,10.10
2022-11-05T19:00:39.112Z,11.50
2022-11-05T19:05:42.559Z,12.13
2022-11-05T19:10:51.786Z,17.77
2022-11-05T19:16:22.611Z,17.23
2022-11-05T19:21:51.565Z,20.43
2022-11-05T19:32:57.728Z,17.13
2022-11-05T19:38:20.811Z,15.10
2022-11-05T19:43:45.841Z,18.47
2022-11-05T19:49:03.609Z,14.90
2022-11-05T19:54:13.426Z,17.50
2022-11-05T19:59:18.548Z,15.53
2022-11-05T20:04:48.312Z,18.07
2022-11-05T20:10:36.468Z,19.90
2022-11-05T20:21:32.659Z,16.97
2022-11-05T20:26:49.023Z,16.50
2022-11-05T20:32:12.526Z,14.93
2022-11-05T20:37:47.405Z,17.97
2022-11-05T20:43:17.204Z,18.73
2022-11-05T20:48:33.562Z,25.80
2022-11-05T20:53:44.284Z,17.33
2022-11-05T20:59:17.648Z,14.83
2022-11-05T21:04:57.863Z,20.93
2022-11-05T21:17:14.806Z,15.27
2022-11-05T21:23:02.885Z,14.10
2022-11-05T21:28:23.219Z,19.27
2022-11-05T21:34:02.275Z,18.33
2022-11-05T21:39:37.857Z,17.47
2022-11-05T21:45:04.423Z,17.37
2022-11-05T21:50:45.335Z,19.30
2022-11-05T21:57:01.457Z,20.13
2022-11-05T22:02:27.107Z,16.13
2022-11-05T22:07:54.718Z,15.77
2022-11-05T22:13:09.811Z,19.43
2022-11-05T22:18:17.967Z,20.50
2022-11-05T22:23:25.589Z,19.40
2022-11-05T22:29:00.107Z,16.17
2022-11-05T22:34:39.197Z,22.20
2022-11-05T22:39:52.208Z,21.70
2022-11-05T22:45:21.164Z,20.87
2022-11-05T22:50:36.532Z,16.97
2022-11-05T22:56:05.946Z,15.50
2022-11-05T23:01:46.265Z,23.53
2022-11-05T23:12:44.814Z,18.87
2022-11-05T23:18:25.089Z,17.50
2022-11-05T23:23:56.395Z,15.47
2022-11-05T23:29:15.235Z,16.30
2022-11-05T23:34:35.708Z,19.37
2022-11-05T23:39:57.730Z,21.67
2022-11-05T23:45:19.447Z,20.20
2022-11-05T23:50:27.613Z,19.00
2022-11-05T23:55:36.848Z,16.93
